Time;durP1;ratioP1;P1;durP2;ratioP2;P2;SDS_P1;SDS_P2;PMS_P1;PMS_P2;Temp;Humidity;BMP_temperature;BMP_pressure;BME280_temperature;BME280_humidity;BME280_pressure;Samples;Min_cycle;Max_cycle;Signal;HPM_P1;HPM_P2
2023/09/10 00:00:27;;;;;;;28.48;14.65;;;;;;;;;;5108633;27;20043;-65
2023/09/10 00:02:56;;;;;;;17.05;14.18;;;;;;;;;;5105789;27;20040;-64
2023/09/10 00:05:23;;;;;;;32.10;14.02;;;;;;;;;;5105380;27;20051;-65
2023/09/10 00:07:50;;;;;;;18.27;14.60;;;;;;;;;;5103284;28;20048;-65
2023/09/10 00:10:18;;;;;;;18.00;14.60;;;;;;;;;;5104823;28;20050;-65
2023/09/10 00:12:45;;;;;;;18.52;14.32;;;;;;;;;;5102721;28;20118;-65
2023/09/10 00:15:12;;;;;;;19.75;13.35;;;;;;;;;;5106250;27;20046;-65
2023/09/10 00:17:39;;;;;;;14.93;12.65;;;;;;;;;;5088746;28;20056;-65
2023/09/10 00:20:10;;;;;;;14.48;11.90;;;;;;;;;;5101847;28;20058;-65
2023/09/10 00:22:38;;;;;;;16.40;11.93;;;;;;;;;;5105185;28;20108;-65
2023/09/10 00:25:06;;;;;;;14.13;11.63;;;;;;;;;;5105904;28;20066;-65
2023/09/10 00:27:33;;;;;;;14.20;12.60;;;;;;;;;;5105968;28;20057;-65
2023/09/10 00:30:00;;;;;;;17.20;14.20;;;;;;;;;;5110356;28;20414;-65
2023/09/10 00:32:28;;;;;;;19.27;14.13;;;;;;;;;;5107035;28;20036;-64
2023/09/10 00:34:55;;;;;;;22.17;15.80;;;;;;;;;;5101195;28;20135;-65
2023/09/10 00:37:24;;;;;;;33.63;15.38;;;;;;;;;;5110464;28;20523;-65
2023/09/10 00:39:51;;;;;;;28.05;14.50;;;;;;;;;;5100867;28;20055;-64
2023/09/10 00:42:19;;;;;;;21.45;14.68;;;;;;;;;;5105092;28;20043;-64
2023/09/10 00:44:46;;;;;;;15.80;14.05;;;;;;;;;;5109780;28;20062;-65
2023/09/10 00:47:14;;;;;;;19.73;13.45;;;;;;;;;;5102628;28;20118;-65
2023/09/10 00:49:41;;;;;;;16.35;13.15;;;;;;;;;;5083820;28;20066;-64
2023/09/10 00:52:09;;;;;;;18.65;14.85;;;;;;;;;;5088844;28;20157;-66
2023/09/10 00:54:38;;;;;;;44.67;14.52;;;;;;;;;;5102579;27;20372;-64
2023/09/10 00:57:06;;;;;;;24.40;14.93;;;;;;;;;;5084391;28;20052;-65
2023/09/10 00:59:33;;;;;;;21.90;13.98;;;;;;;;;;5111398;27;20051;-65
2023/09/10 01:02:00;;;;;;;16.17;13.75;;;;;;;;;;5112382;28;20414;-65
2023/09/10 01:04:28;;;;;;;16.63;12.98;;;;;;;;;;5093667;28;20118;-65
2023/09/10 01:06:55;;;;;;;13.57;12.15;;;;;;;;;;5103048;28;20051;-64
2023/09/10 01:09:22;;;;;;;14.10;12.05;;;;;;;;;;5105668;28;20040;-65
2023/09/10 01:11:58;;;;;;;14.55;12.07;;;;;;;;;;5105761;28;20047;-64
2023/09/10 01:14:29;;;;;;;14.07;12.57;;;;;;;;;;5110539;27;20052;-64
2023/09/10 01:16:58;;;;;;;16.42;14.68;;;;;;;;;;5110550;27;20052;-65
2023/09/10 01:19:42;;;;;;;17.23;14.52;;;;;;;;;;5106629;28;20058;-65
2023/09/10 01:22:12;;;;;;;16.40;14.55;;;;;;;;;;5107493;27;20104;-65
2023/09/10 01:24:45;;;;;;;16.58;13.95;;;;;;;;;;5104280;28;20044;-64
2023/09/10 01:27:14;;;;;;;14.73;13.10;;;;;;;;;;5113019;27;20482;-64
2023/09/10 01:29:41;;;;;;;13.75;12.15;;;;;;;;;;5105667;28;20091;-64
2023/09/10 01:32:10;;;;;;;13.50;11.80;;;;;;;;;;5106130;27;20048;-64
2023/09/10 01:34:39;;;;;;;15.23;13.63;;;;;;;;;;5106852;28;20048;-64
2023/09/10 01:37:10;;;;;;;19.27;14.52;;;;;;;;;;5102375;28;20059;-65
2023/09/10 01:39:40;;;;;;;30.13;14.43;;;;;;;;;;5109720;27;20055;-64
2023/09/10 01:42:09;;;;;;;82.72;13.48;;;;;;;;;;5107781;27;20109;-64
2023/09/10 01:44:37;;;;;;;15.07;13.40;;;;;;;;;;5106980;28;20479;-65
2023/09/10 01:47:04;;;;;;;15.05;12.07;;;;;;;;;;5107139;27;20483;-64
2023/09/10 01:49:32;;;;;;;12.52;11.23;;;;;;;;;;5106357;27;20485;-65
2023/09/10 01:51:59;;;;;;;12.70;11.35;;;;;;;;;;5114825;27;20478;-64
2023/09/10 01:54:26;;;;;;;11.20;10.10;;;;;;;;;;5119114;27;20048;-65
2023/09/10 01:56:54;;;;;;;11.80;10.57;;;;;;;;;;5119957;27;20398;-65
2023/09/10 01:59:22;;;;;;;11.73;10.00;;;;;;;;;;5103522;28;20052;-65
2023/09/10 02:01:49;;;;;;;11.95;10.48;;;;;;;;;;5100170;27;20058;-65
2023/09/10 02:04:17;;;;;;;12.63;11.32;;;;;;;;;;5087855;28;20123;-65
2023/09/10 02:06:44;;;;;;;13.02;11.57;;;;;;;;;;5084938;28;20063;-64
2023/09/10 02:09:11;;;;;;;15.40;12.88;;;;;;;;;;5109818;27;20048;-65
2023/09/10 02:11:38;;;;;;;15.60;12.98;;;;;;;;;;5104218;28;20043;-66
2023/09/10 02:14:05;;;;;;;15.07;12.98;;;;;;;;;;5109264;27;20430;-67
2023/09/10 02:16:34;;;;;;;15.80;13.05;;;;;;;;;;5108765;27;20047;-67
2023/09/10 02:19:01;;;;;;;17.40;13.85;;;;;;;;;;5109265;27;20486;-67
2023/09/10 02:21:29;;;;;;;16.88;13.93;;;;;;;;;;5111152;27;20125;-67
2023/09/10 02:23:56;;;;;;;19.00;13.73;;;;;;;;;;5110284;27;20048;-67
2023/09/10 02:26:24;;;;;;;16.70;13.88;;;;;;;;;;5103599;28;20483;-67
2023/09/10 02:28:51;;;;;;;20.60;16.10;;;;;;;;;;5107143;27;20479;-67
2023/09/10 02:31:21;;;;;;;17.25;13.80;;;;;;;;;;5103618;28;20165;-66
2023/09/10 02:33:50;;;;;;;21.20;14.52;;;;;;;;;;5111843;27;20072;-67
2023/09/10 02:36:17;;;;;;;15.70;13.15;;;;;;;;;;5118485;27;20035;-67
2023/09/10 02:38:45;;;;;;;14.27;11.40;;;;;;;;;;5107480;28;20066;-67
2023/09/10 02:41:12;;;;;;;13.73;11.30;;;;;;;;;;5108704;28;20124;-67
2023/09/10 02:43:39;;;;;;;13.45;11.13;;;;;;;;;;5107669;28;20509;-67
2023/09/10 02:46:06;;;;;;;15.65;12.43;;;;;;;;;;5101807;28;20051;-67
2023/09/10 02:48:33;;;;;;;15.38;11.88;;;;;;;;;;5103561;28;20054;-67
2023/09/10 02:51:02;;;;;;;18.23;13.23;;;;;;;;;;5100776;27;20067;-66
2023/09/10 02:53:29;;;;;;;18.55;14.13;;;;;;;;;;5107894;28;20055;-67
2023/09/10 02:56:00;;;;;;;21.95;15.57;;;;;;;;;;5107973;27;20468;-67
2023/09/10 02:58:27;;;;;;;24.00;15.50;;;;;;;;;;5111260;28;20043;-67
2023/09/10 03:00:54;;;;;;;23.23;16.85;;;;;;;;;;5090276;27;20403;-67
2023/09/10 03:03:22;;;;;;;22.58;17.38;;;;;;;;;;5109711;28;20486;-67
2023/09/10 03:05:49;;;;;;;20.75;16.85;;;;;;;;;;5103318;28;20131;-67
2023/09/10 03:08:17;;;;;;;20.60;15.98;;;;;;;;;;5109878;28;20039;-67
2023/09/10 03:10:45;;;;;;;22.02;17.35;;;;;;;;;;5108560;28;20044;-67
2023/09/10 03:13:12;;;;;;;20.92;16.38;;;;;;;;;;5110573;28;20055;-67
2023/09/10 03:15:39;;;;;;;21.73;16.58;;;;;;;;;;5103537;27;20040;-67
2023/09/10 03:18:06;;;;;;;23.85;17.35;;;;;;;;;;5106813;27;20482;-67
2023/09/10 03:20:34;;;;;;;24.67;17.98;;;;;;;;;;5107593;28;20063;-67
2023/09/10 03:23:02;;;;;;;22.25;15.48;;;;;;;;;;5091126;28;20051;-67
2023/09/10 03:25:30;;;;;;;20.13;14.02;;;;;;;;;;5103139;28;20398;-67
2023/09/10 03:27:58;;;;;;;17.27;12.90;;;;;;;;;;5104111;27;20056;-66
2023/09/10 03:30:25;;;;;;;15.43;12.13;;;;;;;;;;5088547;28;20130;-67
2023/09/10 03:32:53;;;;;;;17.70;11.50;;;;;;;;;;5081211;28;20055;-67
2023/09/10 03:35:20;;;;;;;14.32;11.35;;;;;;;;;;5103851;28;20051;-66
2023/09/10 03:37:47;;;;;;;16.20;12.27;;;;;;;;;;5104716;27;20078;-67
2023/09/10 03:40:15;;;;;;;17.25;13.73;;;;;;;;;;5105287;27;20646;-67
2023/09/10 03:42:43;;;;;;;18.17;14.57;;;;;;;;;;5102191;28;20101;-67
2023/09/10 03:45:11;;;;;;;18.95;14.23;;;;;;;;;;5105181;28;20048;-67
2023/09/10 03:47:38;;;;;;;17.38;13.70;;;;;;;;;;5105795;28;20422;-66
2023/09/10 03:50:06;;;;;;;19.13;14.30;;;;;;;;;;5107288;27;20498;-67
2023/09/10 03:52:33;;;;;;;18.48;14.60;;;;;;;;;;5100066;28;20502;-67
2023/09/10 03:55:00;;;;;;;20.35;14.63;;;;;;;;;;5106351;28;20042;-67
2023/09/10 03:57:27;;;;;;;20.25;14.55;;;;;;;;;;5107233;28;20407;-67
2023/09/10 03:59:56;;;;;;;20.02;14.95;;;;;;;;;;5108163;28;20105;-67
2023/09/10 04:02:24;;;;;;;20.10;13.35;;;;;;;;;;5099213;28;20070;-67
2023/09/10 04:04:51;;;;;;;15.45;12.40;;;;;;;;;;5106643;28;20063;-66
2023/09/10 04:07:19;;;;;;;15.70;12.82;;;;;;;;;;5104250;28;20407;-67
2023/09/10 04:09:46;;;;;;;19.02;13.55;;;;;;;;;;5107064;27;20414;-67
2023/09/10 04:12:13;;;;;;;16.40;13.18;;;;;;;;;;5099908;28;20258;-67
2023/09/10 04:14:40;;;;;;;19.92;14.10;;;;;;;;;;5105323;27;20047;-67
2023/09/10 04:17:09;;;;;;;19.75;14.80;;;;;;;;;;5103366;28;20495;-67
2023/09/10 04:19:36;;;;;;;20.70;15.13;;;;;;;;;;5103422;28;20051;-66
2023/09/10 04:22:04;;;;;;;20.88;15.32;;;;;;;;;;5104565;28;20051;-67
2023/09/10 04:24:31;;;;;;;16.30;13.57;;;;;;;;;;5086994;28;20051;-67
2023/09/10 04:26:58;;;;;;;14.45;12.30;;;;;;;;;;5109034;28;20048;-67
2023/09/10 04:29:25;;;;;;;14.90;13.05;;;;;;;;;;5107984;27;20051;-67
2023/09/10 04:31:53;;;;;;;16.17;12.70;;;;;;;;;;5107293;28;20384;-67
2023/09/10 04:34:21;;;;;;;14.10;11.63;;;;;;;;;;5106037;28;20043;-67
2023/09/10 04:36:48;;;;;;;14.95;12.40;;;;;;;;;;5104915;28;20044;-67
2023/09/10 04:39:16;;;;;;;15.40;12.15;;;;;;;;;;5104198;28;20055;-67
2023/09/10 04:41:43;;;;;;;15.05;12.75;;;;;;;;;;5107069;28;20062;-66
2023/09/10 04:44:11;;;;;;;15.27;12.13;;;;;;;;;;5109570;28;20051;-67
2023/09/10 04:46:38;;;;;;;17.40;12.52;;;;;;;;;;5106430;28;20043;-66
2023/09/10 04:49:05;;;;;;;15.13;11.90;;;;;;;;;;5098979;28;20044;-66
2023/09/10 04:51:34;;;;;;;14.27;11.88;;;;;;;;;;5107416;28;20044;-67
2023/09/10 04:54:01;;;;;;;12.77;11.30;;;;;;;;;;5106925;28;20047;-67
2023/09/10 04:56:28;;;;;;;15.85;12.10;;;;;;;;;;5103754;28;20498;-67
2023/09/10 04:58:55;;;;;;;15.23;11.93;;;;;;;;;;5089476;28;20060;-66
2023/09/10 05:01:23;;;;;;;17.38;12.45;;;;;;;;;;5101640;28;20040;-67
2023/09/10 05:03:50;;;;;;;14.77;12.30;;;;;;;;;;5099417;28;20514;-67
2023/09/10 05:06:19;;;;;;;17.40;12.88;;;;;;;;;;5104213;28;20062;-67
2023/09/10 05:08:48;;;;;;;13.93;12.20;;;;;;;;;;5103151;28;20052;-67
2023/09/10 05:11:15;;;;;;;20.80;13.80;;;;;;;;;;5109084;28;20501;-67
2023/09/10 05:13:42;;;;;;;17.08;13.68;;;;;;;;;;5105418;28;20048;-67
2023/09/10 05:16:10;;;;;;;18.60;14.63;;;;;;;;;;5106391;28;20055;-67
2023/09/10 05:18:37;;;;;;;19.33;14.52;;;;;;;;;;5107383;28;20047;-67
2023/09/10 05:21:04;;;;;;;18.88;14.77;;;;;;;;;;5111660;28;20035;-67
2023/09/10 05:23:34;;;;;;;23.67;15.50;;;;;;;;;;5105608;28;20051;-68
2023/09/10 05:26:03;;;;;;;22.50;16.38;;;;;;;;;;5110568;28;20052;-67
2023/09/10 05:28:30;;;;;;;21.55;15.82;;;;;;;;;;5100010;28;20050;-67
2023/09/10 05:30:58;;;;;;;22.65;16.20;;;;;;;;;;5101302;28;20044;-67
2023/09/10 05:33:25;;;;;;;24.70;17.20;;;;;;;;;;5107994;28;20051;-66
2023/09/10 05:35:56;;;;;;;21.42;16.75;;;;;;;;;;5105326;28;20040;-67
2023/09/10 05:38:23;;;;;;;27.05;17.92;;;;;;;;;;5102102;28;20048;-67
2023/09/10 05:40:50;;;;;;;25.02;17.88;;;;;;;;;;5109523;28;20126;-66
2023/09/10 05:43:19;;;;;;;25.70;17.85;;;;;;;;;;5103612;27;20047;-66
2023/09/10 05:45:47;;;;;;;25.38;18.27;;;;;;;;;;5106063;28;20055;-67
2023/09/10 05:48:14;;;;;;;26.67;18.95;;;;;;;;;;5103063;27;20136;-67
2023/09/10 05:50:42;;;;;;;27.27;19.08;;;;;;;;;;5107200;28;20070;-66
2023/09/10 05:53:09;;;;;;;33.15;21.13;;;;;;;;;;5109114;27;20040;-67
2023/09/10 05:55:40;;;;;;;27.25;19.67;;;;;;;;;;5102046;27;20043;-67
2023/09/10 05:58:07;;;;;;;30.08;20.15;;;;;;;;;;5111381;27;20047;-67
2023/09/10 06:00:36;;;;;;;29.85;21.42;;;;;;;;;;5106741;27;20066;-67
2023/09/10 06:03:03;;;;;;;30.88;21.13;;;;;;;;;;5099383;28;20059;-67
2023/09/10 06:05:31;;;;;;;29.55;20.77;;;;;;;;;;5109558;27;20048;-67
2023/09/10 06:07:58;;;;;;;31.15;21.67;;;;;;;;;;5102252;27;20114;-67
2023/09/10 06:10:25;;;;;;;32.70;21.98;;;;;;;;;;5109314;28;20047;-67
2023/09/10 06:12:52;;;;;;;29.77;21.25;;;;;;;;;;5101027;27;20051;-67
2023/09/10 06:15:20;;;;;;;34.63;21.98;;;;;;;;;;5086318;28;20044;-67
2023/09/10 06:17:48;;;;;;;34.53;22.98;;;;;;;;;;5110742;27;20487;-67
2023/09/10 06:20:16;;;;;;;33.38;22.42;;;;;;;;;;5107102;28;20055;-67
2023/09/10 06:22:43;;;;;;;33.42;22.55;;;;;;;;;;5110332;27;20526;-66
2023/09/10 06:25:10;;;;;;;37.95;24.50;;;;;;;;;;5109522;27;20052;-67
2023/09/10 06:27:38;;;;;;;36.25;24.38;;;;;;;;;;5109778;27;20494;-67
2023/09/10 06:30:05;;;;;;;35.55;24.58;;;;;;;;;;5110332;28;20054;-67
2023/09/10 06:32:33;;;;;;;33.00;22.35;;;;;;;;;;5098484;28;20055;-67
2023/09/10 06:35:01;;;;;;;37.00;25.48;;;;;;;;;;5090629;28;20129;-67
2023/09/10 06:37:28;;;;;;;32.70;23.45;;;;;;;;;;5108438;27;20052;-66
2023/09/10 06:39:56;;;;;;;39.03;26.65;;;;;;;;;;5108228;28;20593;-66
2023/09/10 06:42:23;;;;;;;35.35;23.95;;;;;;;;;;5102454;27;20066;-67
2023/09/10 06:44:50;;;;;;;36.97;25.17;;;;;;;;;;5097689;28;20059;-67
2023/09/10 06:47:17;;;;;;;38.97;26.13;;;;;;;;;;5106996;28;20040;-67
2023/09/10 06:49:44;;;;;;;37.17;25.58;;;;;;;;;;5109111;27;20047;-67
2023/09/10 06:52:13;;;;;;;38.58;25.45;;;;;;;;;;5108125;27;20052;-66
2023/09/10 06:54:40;;;;;;;35.88;26.30;;;;;;;;;;5103302;28;20044;-67
2023/09/10 06:57:07;;;;;;;37.15;25.88;;;;;;;;;;5106821;28;20449;-67
2023/09/10 06:59:35;;;;;;;41.60;28.15;;;;;;;;;;5104467;27;20063;-67
2023/09/10 07:02:02;;;;;;;38.10;26.50;;;;;;;;;;5105356;28;20078;-67
2023/09/10 07:04:30;;;;;;;43.78;28.60;;;;;;;;;;5101076;28;20044;-67
2023/09/10 07:06:57;;;;;;;41.17;28.00;;;;;;;;;;5103342;27;20051;-67
2023/09/10 07:09:26;;;;;;;54.72;30.92;;;;;;;;;;5104661;28;20411;-67
2023/09/10 07:11:54;;;;;;;46.33;29.38;;;;;;;;;;5088323;28;20760;-67
2023/09/10 07:14:21;;;;;;;42.90;28.90;;;;;;;;;;5108470;28;20039;-66
2023/09/10 07:16:49;;;;;;;45.95;27.95;;;;;;;;;;5105880;27;20055;-67
2023/09/10 07:19:16;;;;;;;39.33;26.15;;;;;;;;;;5111903;27;20040;-67
2023/09/10 07:21:44;;;;;;;38.78;25.23;;;;;;;;;;5112161;27;20043;-67
2023/09/10 07:24:11;;;;;;;37.95;25.17;;;;;;;;;;5108012;27;20048;-67
2023/09/10 07:26:40;;;;;;;35.08;23.88;;;;;;;;;;5104431;28;20044;-67
2023/09/10 07:29:08;;;;;;;32.45;22.80;;;;;;;;;;5108044;28;20044;-67
2023/09/10 07:31:36;;;;;;;33.72;23.88;;;;;;;;;;5104955;28;20066;-67
2023/09/10 07:34:04;;;;;;;34.13;23.85;;;;;;;;;;5105429;28;20044;-67
2023/09/10 07:36:31;;;;;;;34.58;22.17;;;;;;;;;;5097761;28;20040;-67
2023/09/10 07:38:59;;;;;;;32.30;20.92;;;;;;;;;;5099406;28;20414;-67
2023/09/10 07:41:26;;;;;;;29.30;20.90;;;;;;;;;;5088845;28;20070;-69
2023/09/10 07:43:55;;;;;;;27.90;19.30;;;;;;;;;;5089131;28;20082;-67
2023/09/10 07:46:22;;;;;;;27.98;20.23;;;;;;;;;;5099594;28;20403;-67
2023/09/10 07:48:49;;;;;;;30.75;20.58;;;;;;;;;;5082684;28;20056;-67
2023/09/10 07:51:16;;;;;;;29.60;21.10;;;;;;;;;;5099550;28;20051;-67
2023/09/10 07:53:44;;;;;;;31.48;22.13;;;;;;;;;;5091144;28;20635;-67
2023/09/10 07:56:11;;;;;;;30.50;22.35;;;;;;;;;;5108810;28;20048;-67
2023/09/10 07:58:38;;;;;;;31.17;22.17;;;;;;;;;;5105020;27;20392;-67
2023/09/10 08:01:07;;;;;;;26.92;20.17;;;;;;;;;;5101197;27;20059;-67
2023/09/10 08:03:36;;;;;;;28.40;20.83;;;;;;;;;;5100862;28;20043;-67
2023/09/10 08:06:04;;;;;;;31.25;20.65;;;;;;;;;;5103003;28;20409;-67
2023/09/10 08:08:31;;;;;;;31.58;21.33;;;;;;;;;;5103617;27;20131;-67
2023/09/10 08:10:58;;;;;;;28.00;19.98;;;;;;;;;;5100879;28;20514;-67
2023/09/10 08:13:25;;;;;;;28.35;20.67;;;;;;;;;;5111116;28;20043;-67
2023/09/10 08:15:53;;;;;;;28.45;18.70;;;;;;;;;;5105944;28;20059;-67
2023/09/10 08:18:21;;;;;;;27.13;19.13;;;;;;;;;;5102612;28;20044;-67
2023/09/10 08:20:48;;;;;;;27.65;17.88;;;;;;;;;;5104227;28;20051;-66
2023/09/10 08:23:16;;;;;;;25.80;19.27;;;;;;;;;;5103497;27;20048;-67
2023/09/10 08:25:43;;;;;;;23.83;17.40;;;;;;;;;;5100779;28;20052;-67
2023/09/10 08:28:10;;;;;;;24.02;18.25;;;;;;;;;;5107581;28;20482;-67
2023/09/10 08:30:37;;;;;;;25.83;17.65;;;;;;;;;;5109795;27;20051;-67
2023/09/10 08:33:05;;;;;;;29.23;16.67;;;;;;;;;;5104613;28;20451;-67
2023/09/10 08:35:45;;;;;;;23.63;16.33;;;;;;;;;;5108368;28;20090;-67
2023/09/10 08:38:12;;;;;;;23.88;15.80;;;;;;;;;;5104880;28;20050;-68
2023/09/10 08:40:43;;;;;;;20.27;13.65;;;;;;;;;;5099913;28;20054;-67
2023/09/10 08:43:12;;;;;;;16.85;12.93;;;;;;;;;;5110527;28;20083;-67
2023/09/10 08:45:38;;;;;;;19.80;12.63;;;;;;;;;;5106008;28;20517;-67
2023/09/10 08:48:06;;;;;;;18.50;13.00;;;;;;;;;;5105493;28;20074;-67
2023/09/10 08:50:34;;;;;;;20.30;13.25;;;;;;;;;;5105379;28;20131;-68
2023/09/10 08:53:03;;;;;;;16.77;13.27;;;;;;;;;;5098678;28;20497;-67
2023/09/10 08:55:31;;;;;;;19.02;12.90;;;;;;;;;;5098744;28;20071;-67
2023/09/10 08:57:59;;;;;;;21.13;13.60;;;;;;;;;;5117143;28;20039;-68
2023/09/10 09:00:26;;;;;;;15.50;11.48;;;;;;;;;;5099660;28;20126;-67
2023/09/10 09:02:54;;;;;;;18.25;12.13;;;;;;;;;;5099216;28;20040;-68
2023/09/10 09:05:21;;;;;;;13.63;10.73;;;;;;;;;;5100858;28;20050;-67
2023/09/10 09:07:54;;;;;;;14.73;11.38;;;;;;;;;;5106952;28;20044;-67
2023/09/10 09:10:23;;;;;;;19.27;11.32;;;;;;;;;;5107018;28;20157;-67
2023/09/10 09:12:52;;;;;;;14.95;10.35;;;;;;;;;;5096711;28;20074;-68
2023/09/10 09:15:20;;;;;;;12.45;9.90;;;;;;;;;;5102058;28;20047;-68
2023/09/10 09:17:48;;;;;;;12.73;9.57;;;;;;;;;;5115146;27;20043;-67
2023/09/10 09:20:18;;;;;;;12.45;9.40;;;;;;;;;;5106722;28;20044;-67
2023/09/10 09:22:47;;;;;;;12.90;9.82;;;;;;;;;;5112625;27;20699;-68
2023/09/10 09:25:16;;;;;;;11.95;8.95;;;;;;;;;;5094747;27;20055;-68
2023/09/10 09:27:45;;;;;;;11.38;8.48;;;;;;;;;;5112712;27;20047;-68
2023/09/10 09:30:12;;;;;;;10.40;8.60;;;;;;;;;;5110539;28;20044;-67
2023/09/10 09:32:39;;;;;;;17.70;8.93;;;;;;;;;;5097567;28;20407;-68
2023/09/10 09:35:10;;;;;;;14.65;9.20;;;;;;;;;;5107447;28;20055;-67
2023/09/10 09:37:38;;;;;;;11.77;8.63;;;;;;;;;;5108886;28;20043;-67
2023/09/10 09:40:09;;;;;;;11.48;8.25;;;;;;;;;;5110008;28;20079;-67
2023/09/10 09:42:37;;;;;;;9.52;7.78;;;;;;;;;;5109815;27;20054;-67
2023/09/10 09:45:05;;;;;;;11.85;9.00;;;;;;;;;;5113314;28;20560;-67
2023/09/10 09:47:33;;;;;;;15.98;7.53;;;;;;;;;;5107741;28;20048;-67
2023/09/10 09:50:00;;;;;;;8.93;7.45;;;;;;;;;;5107982;28;20725;-68
2023/09/10 09:52:28;;;;;;;12.60;7.90;;;;;;;;;;5106696;28;20070;-67
2023/09/10 09:54:55;;;;;;;10.27;7.15;;;;;;;;;;5108154;28;20058;-67
2023/09/10 09:57:22;;;;;;;10.45;7.97;;;;;;;;;;5090568;28;20490;-68
2023/09/10 09:59:50;;;;;;;13.68;7.55;;;;;;;;;;5110689;28;20059;-68
2023/09/10 10:02:19;;;;;;;12.45;7.10;;;;;;;;;;5108017;28;20071;-68
2023/09/10 10:04:46;;;;;;;9.75;6.75;;;;;;;;;;5107109;27;20063;-67
2023/09/10 10:07:15;;;;;;;6.70;5.60;;;;;;;;;;5110306;28;20045;-67
2023/09/10 10:09:43;;;;;;;11.65;7.20;;;;;;;;;;5112710;27;20121;-67
2023/09/10 10:12:10;;;;;;;10.85;6.93;;;;;;;;;;5104721;28;20036;-67
2023/09/10 10:14:38;;;;;;;10.38;5.55;;;;;;;;;;5089388;28;20062;-67
2023/09/10 10:17:07;;;;;;;11.70;6.03;;;;;;;;;;5108163;28;20067;-68
2023/09/10 10:19:35;;;;;;;8.43;6.15;;;;;;;;;;5093323;27;20136;-67
2023/09/10 10:22:04;;;;;;;7.90;5.85;;;;;;;;;;5094355;28;20105;-69
2023/09/10 10:24:33;;;;;;;14.40;6.22;;;;;;;;;;5089839;28;20063;-68
2023/09/10 10:27:02;;;;;;;9.90;5.80;;;;;;;;;;5111909;27;20048;-68
2023/09/10 10:29:30;;;;;;;8.52;6.82;;;;;;;;;;5095544;27;20044;-68
2023/09/10 10:32:01;;;;;;;8.63;6.05;;;;;;;;;;5107696;28;20509;-67
2023/09/10 10:34:29;;;;;;;9.20;6.72;;;;;;;;;;5100283;28;20409;-67
2023/09/10 10:37:03;;;;;;;9.00;6.20;;;;;;;;;;5107426;27;20173;-67
2023/09/10 10:39:34;;;;;;;14.88;6.45;;;;;;;;;;5104581;28;20131;-67
2023/09/10 10:42:02;;;;;;;9.55;6.90;;;;;;;;;;5111703;28;20135;-68
2023/09/10 10:44:32;;;;;;;10.85;6.88;;;;;;;;;;5107702;28;20083;-68
2023/09/10 10:47:01;;;;;;;9.57;6.32;;;;;;;;;;5098291;28;20052;-68
2023/09/10 10:49:29;;;;;;;13.45;6.35;;;;;;;;;;5106647;27;20542;-68
2023/09/10 10:51:58;;;;;;;15.13;7.05;;;;;;;;;;5087382;28;20066;-68
2023/09/10 10:54:26;;;;;;;11.65;6.55;;;;;;;;;;5110064;28;20048;-68
2023/09/10 10:56:54;;;;;;;14.48;6.18;;;;;;;;;;5108046;28;20052;-67
2023/09/10 10:59:21;;;;;;;11.48;6.13;;;;;;;;;;5110764;28;20054;-67
2023/09/10 11:02:03;;;;;;;11.80;6.20;;;;;;;;;;5109438;28;20059;-67
2023/09/10 11:04:31;;;;;;;20.05;6.60;;;;;;;;;;5099637;28;20530;-68
2023/09/10 11:07:17;;;;;;;10.27;6.88;;;;;;;;;;5104317;27;20044;-67
2023/09/10 11:09:47;;;;;;;10.70;6.93;;;;;;;;;;5105994;28;20043;-67
2023/09/10 11:12:15;;;;;;;10.57;6.60;;;;;;;;;;5101646;28;20048;-68
2023/09/10 11:15:01;;;;;;;7.38;5.85;;;;;;;;;;5099289;28;20048;-67
2023/09/10 11:17:29;;;;;;;14.45;6.80;;;;;;;;;;5100831;27;20479;-68
2023/09/10 11:19:56;;;;;;;10.43;6.63;;;;;;;;;;5107824;27;20456;-68
2023/09/10 11:22:24;;;;;;;11.85;5.60;;;;;;;;;;5106797;27;20043;-67
2023/09/10 11:25:02;;;;;;;12.00;6.60;;;;;;;;;;5099611;27;20062;-68
2023/09/10 11:27:30;;;;;;;8.65;5.60;;;;;;;;;;5105529;27;20460;-67
2023/09/10 11:30:11;;;;;;;9.60;5.47;;;;;;;;;;5107639;28;20052;-68
2023/09/10 11:32:40;;;;;;;10.03;5.83;;;;;;;;;;5104753;28;20105;-68
2023/09/10 11:35:26;;;;;;;12.23;5.30;;;;;;;;;;5104061;28;20134;-68
2023/09/10 11:37:55;;;;;;;8.68;4.97;;;;;;;;;;5083645;28;20700;-68
2023/09/10 11:40:25;;;;;;;11.45;5.68;;;;;;;;;;5110106;27;20134;-68
2023/09/10 11:42:53;;;;;;;10.25;5.57;;;;;;;;;;5105185;28;20050;-68
2023/09/10 11:45:20;;;;;;;13.30;5.80;;;;;;;;;;5106992;28;20047;-68
2023/09/10 11:47:48;;;;;;;12.25;5.38;;;;;;;;;;5096475;28;20522;-68
2023/09/10 11:50:16;;;;;;;9.52;5.20;;;;;;;;;;5098109;28;20043;-68
2023/09/10 11:52:43;;;;;;;10.40;5.93;;;;;;;;;;5107268;28;20054;-68
2023/09/10 11:55:11;;;;;;;7.47;5.45;;;;;;;;;;5091626;28;20055;-68
2023/09/10 11:57:40;;;;;;;11.70;5.35;;;;;;;;;;5086153;28;20438;-68
2023/09/10 12:00:07;;;;;;;14.40;4.90;;;;;;;;;;5105735;27;20466;-68
2023/09/10 12:02:35;;;;;;;8.00;5.00;;;;;;;;;;5085805;28;20055;-68
2023/09/10 12:05:02;;;;;;;13.68;4.88;;;;;;;;;;5090435;28;20444;-68
2023/09/10 12:07:30;;;;;;;9.30;5.22;;;;;;;;;;5089313;28;20054;-68
2023/09/10 12:09:57;;;;;;;10.60;4.63;;;;;;;;;;5106412;27;20074;-68
2023/09/10 12:12:27;;;;;;;8.27;5.30;;;;;;;;;;5101167;28;20048;-68
2023/09/10 12:14:56;;;;;;;9.38;4.93;;;;;;;;;;5103828;28;20050;-68
2023/09/10 12:17:23;;;;;;;9.57;5.32;;;;;;;;;;5092708;28;20066;-68
2023/09/10 12:19:51;;;;;;;10.68;5.15;;;;;;;;;;5106706;27;20439;-68
2023/09/10 12:22:19;;;;;;;14.05;4.88;;;;;;;;;;5109255;28;20058;-68
2023/09/10 12:24:47;;;;;;;8.02;4.75;;;;;;;;;;5099584;27;20044;-68
2023/09/10 12:27:14;;;;;;;12.27;4.82;;;;;;;;;;5108134;28;20054;-68
2023/09/10 12:29:42;;;;;;;6.68;4.68;;;;;;;;;;5106306;28;20046;-68
2023/09/10 12:32:11;;;;;;;9.95;5.13;;;;;;;;;;5100369;28;20519;-68
2023/09/10 12:34:39;;;;;;;10.60;4.95;;;;;;;;;;5102501;28;20047;-68
2023/09/10 12:37:06;;;;;;;8.73;4.93;;;;;;;;;;5103522;28;20043;-68
2023/09/10 12:39:33;;;;;;;9.30;5.05;;;;;;;;;;5111073;28;20410;-68
2023/09/10 12:42:02;;;;;;;11.98;5.10;;;;;;;;;;5104531;28;20055;-68
2023/09/10 12:44:30;;;;;;;12.75;5.03;;;;;;;;;;5104650;28;20043;-68
2023/09/10 12:46:58;;;;;;;10.00;5.15;;;;;;;;;;5083624;28;20063;-68
2023/09/10 12:49:26;;;;;;;15.63;5.18;;;;;;;;;;5088954;28;20058;-68
2023/09/10 12:51:54;;;;;;;8.68;4.78;;;;;;;;;;5106994;27;20047;-68
2023/09/10 12:54:21;;;;;;;8.55;5.20;;;;;;;;;;5110752;27;20047;-68
2023/09/10 12:56:50;;;;;;;13.93;4.93;;;;;;;;;;5109387;27;20074;-68
2023/09/10 12:59:17;;;;;;;10.50;4.88;;;;;;;;;;5114262;28;20069;-68
2023/09/10 13:01:44;;;;;;;9.63;4.93;;;;;;;;;;5110834;27;20518;-70
2023/09/10 13:04:12;;;;;;;9.73;4.88;;;;;;;;;;5113454;28;20043;-69
2023/09/10 13:06:40;;;;;;;15.70;5.25;;;;;;;;;;5110952;27;21367;-69
2023/09/10 13:09:08;;;;;;;10.77;5.38;;;;;;;;;;5113903;27;20039;-69
2023/09/10 13:11:36;;;;;;;9.77;5.20;;;;;;;;;;5108545;27;20047;-68
2023/09/10 13:14:04;;;;;;;9.65;5.15;;;;;;;;;;5109167;28;20051;-69
2023/09/10 13:16:31;;;;;;;12.63;4.88;;;;;;;;;;5107433;28;20051;-69
2023/09/10 13:18:58;;;;;;;8.35;5.30;;;;;;;;;;5100784;28;20380;-68
2023/09/10 13:21:25;;;;;;;15.73;5.13;;;;;;;;;;5110196;28;20048;-68
2023/09/10 13:23:54;;;;;;;15.55;5.57;;;;;;;;;;5105650;28;20047;-69
2023/09/10 13:26:21;;;;;;;11.73;5.20;;;;;;;;;;5108309;28;20317;-69
2023/09/10 13:28:48;;;;;;;12.30;5.53;;;;;;;;;;5103408;28;20055;-68
2023/09/10 13:31:16;;;;;;;7.38;4.97;;;;;;;;;;5108815;27;20042;-69
2023/09/10 13:33:43;;;;;;;11.35;5.20;;;;;;;;;;5097319;27;20108;-68
2023/09/10 13:36:11;;;;;;;10.85;4.90;;;;;;;;;;5106053;28;20044;-69
2023/09/10 13:38:38;;;;;;;9.38;5.60;;;;;;;;;;5109709;27;20052;-68
2023/09/10 13:41:07;;;;;;;11.65;4.65;;;;;;;;;;5107819;28;20075;-69
2023/09/10 13:43:34;;;;;;;10.80;5.07;;;;;;;;;;5102521;28;20043;-69
2023/09/10 13:46:02;;;;;;;11.30;5.00;;;;;;;;;;5107603;28;20070;-69
2023/09/10 13:48:29;;;;;;;12.00;5.10;;;;;;;;;;5111342;27;20108;-69
2023/09/10 13:50:57;;;;;;;9.98;4.85;;;;;;;;;;5106463;28;20055;-69
2023/09/10 13:53:24;;;;;;;11.30;4.93;;;;;;;;;;5103407;28;20473;-69
2023/09/10 13:55:52;;;;;;;12.15;5.25;;;;;;;;;;5101406;27;20055;-69
2023/09/10 13:58:20;;;;;;;8.10;4.68;;;;;;;;;;5109759;27;20048;-68
2023/09/10 14:00:47;;;;;;;7.13;4.78;;;;;;;;;;5109477;28;20051;-69
2023/09/10 14:03:15;;;;;;;13.65;5.07;;;;;;;;;;5111870;28;20058;-69
2023/09/10 14:05:42;;;;;;;11.32;4.85;;;;;;;;;;5108716;28;20044;-69
2023/09/10 14:08:09;;;;;;;12.52;4.68;;;;;;;;;;5106005;27;20044;-68
2023/09/10 14:10:36;;;;;;;11.07;4.72;;;;;;;;;;5087530;28;20070;-68
2023/09/10 14:13:04;;;;;;;9.32;4.82;;;;;;;;;;5085089;28;20059;-68
2023/09/10 14:15:32;;;;;;;10.00;4.88;;;;;;;;;;5108882;28;20074;-68
2023/09/10 14:18:00;;;;;;;9.93;4.75;;;;;;;;;;5111680;27;20092;-68
2023/09/10 14:20:27;;;;;;;8.90;4.95;;;;;;;;;;5110959;28;20406;-69
2023/09/10 14:22:54;;;;;;;12.23;4.50;;;;;;;;;;5110190;27;20062;-69
2023/09/10 14:25:22;;;;;;;10.82;5.07;;;;;;;;;;5112470;27;20048;-69
2023/09/10 14:27:50;;;;;;;8.65;5.00;;;;;;;;;;5107385;27;20043;-69